sensor_id;sensor_type;location;lat;lon;timestamp;pressure;altitude;pressure_sealevel;temperature;humidity
76070;BME280;64768;51.738;5.852;2022-12-18T00:00:20;102895.28;;;-4.03;92.51
76070;BME280;64768;51.738;5.852;2022-12-18T00:02:48;102895.22;;;-4.08;92.60
76070;BME280;64768;51.738;5.852;2022-12-18T00:05:17;102890.78;;;-4.02;92.54
76070;BME280;64768;51.738;5.852;2022-12-18T00:07:45;102888.38;;;-4.04;92.22
76070;BME280;64768;51.738;5.852;2022-12-18T00:10:20;102886.06;;;-4.22;92.26
76070;BME280;64768;51.738;5.852;2022-12-18T00:12:48;102901.47;;;-4.24;92.64
76070;BME280;64768;51.738;5.852;2022-12-18T00:15:17;102888.81;;;-4.12;92.54
76070;BME280;64768;51.738;5.852;2022-12-18T00:17:46;102896.88;;;-4.07;92.29
76070;BME280;64768;51.738;5.852;2022-12-18T00:20:14;102893.59;;;-4.14;92.06
76070;BME280;64768;51.738;5.852;2022-12-18T00:22:47;102890.34;;;-4.21;92.34
76070;BME280;64768;51.738;5.852;2022-12-18T00:25:16;102891.44;;;-4.17;92.31
76070;BME280;64768;51.738;5.852;2022-12-18T00:27:47;102886.88;;;-4.21;92.35
76070;BME280;64768;51.738;5.852;2022-12-18T00:30:17;102883.34;;;-4.27;92.15
76070;BME280;64768;51.738;5.852;2022-12-18T00:32:46;102881.22;;;-4.25;92.54
76070;BME280;64768;51.738;5.852;2022-12-18T00:35:14;102884.53;;;-4.13;92.05
76070;BME280;64768;51.738;5.852;2022-12-18T00:37:43;102883.41;;;-4.22;92.22
76070;BME280;64768;51.738;5.852;2022-12-18T00:40:12;102878.31;;;-4.24;92.07
76070;BME280;64768;51.738;5.852;2022-12-18T00:42:40;102868.94;;;-4.31;92.29
76070;BME280;64768;51.738;5.852;2022-12-18T00:45:25;102872.91;;;-4.34;92.34
76070;BME280;64768;51.738;5.852;2022-12-18T00:47:54;102870.81;;;-4.32;92.38
76070;BME280;64768;51.738;5.852;2022-12-18T00:50:24;102879.00;;;-4.38;92.03
76070;BME280;64768;51.738;5.852;2022-12-18T00:52:53;102873.22;;;-4.30;92.00
76070;BME280;64768;51.738;5.852;2022-12-18T00:55:22;102880.53;;;-4.42;92.29
76070;BME280;64768;51.738;5.852;2022-12-18T00:57:51;102874.94;;;-4.41;92.28
76070;BME280;64768;51.738;5.852;2022-12-18T01:00:19;102879.53;;;-4.36;92.37
76070;BME280;64768;51.738;5.852;2022-12-18T01:02:50;102883.66;;;-4.50;92.26
76070;BME280;64768;51.738;5.852;2022-12-18T01:05:19;102872.75;;;-4.49;92.30
76070;BME280;64768;51.738;5.852;2022-12-18T01:07:48;102878.84;;;-4.54;92.61
76070;BME280;64768;51.738;5.852;2022-12-18T01:10:17;102883.13;;;-4.47;92.15
76070;BME280;64768;51.738;5.852;2022-12-18T01:12:45;102885.75;;;-4.53;92.01
76070;BME280;64768;51.738;5.852;2022-12-18T01:15:14;102889.72;;;-4.55;92.12
76070;BME280;64768;51.738;5.852;2022-12-18T01:17:43;102887.22;;;-4.62;92.26
76070;BME280;64768;51.738;5.852;2022-12-18T01:20:14;102884.16;;;-4.54;91.82
76070;BME280;64768;51.738;5.852;2022-12-18T01:22:43;102874.56;;;-4.55;92.01
76070;BME280;64768;51.738;5.852;2022-12-18T01:25:11;102881.16;;;-4.57;91.99
76070;BME280;64768;51.738;5.852;2022-12-18T01:27:40;102882.03;;;-4.51;91.52
76070;BME280;64768;51.738;5.852;2022-12-18T01:30:10;102888.53;;;-4.64;91.89
76070;BME280;64768;51.738;5.852;2022-12-18T01:32:38;102891.16;;;-4.69;92.18
76070;BME280;64768;51.738;5.852;2022-12-18T01:35:08;102878.59;;;-4.74;91.80
76070;BME280;64768;51.738;5.852;2022-12-18T01:37:39;102881.81;;;-4.72;92.09
76070;BME280;64768;51.738;5.852;2022-12-18T01:40:08;102880.81;;;-4.66;92.48
76070;BME280;64768;51.738;5.852;2022-12-18T01:42:37;102876.91;;;-4.58;92.22
76070;BME280;64768;51.738;5.852;2022-12-18T01:45:22;102891.19;;;-4.64;91.86
76070;BME280;64768;51.738;5.852;2022-12-18T01:47:53;102891.50;;;-4.61;91.85
76070;BME280;64768;51.738;5.852;2022-12-18T01:50:24;102888.28;;;-4.63;91.73
76070;BME280;64768;51.738;5.852;2022-12-18T01:53:00;102886.94;;;-4.65;91.98
76070;BME280;64768;51.738;5.852;2022-12-18T01:55:31;102885.09;;;-4.65;91.64
76070;BME280;64768;51.738;5.852;2022-12-18T01:58:01;102882.69;;;-4.66;91.50
76070;BME280;64768;51.738;5.852;2022-12-18T02:00:32;102884.47;;;-4.72;92.12
76070;BME280;64768;51.738;5.852;2022-12-18T02:03:02;102888.78;;;-4.66;91.82
76070;BME280;64768;51.738;5.852;2022-12-18T02:05:44;102877.06;;;-4.70;91.58
76070;BME280;64768;51.738;5.852;2022-12-18T02:08:21;102886.13;;;-4.66;91.78
76070;BME280;64768;51.738;5.852;2022-12-18T02:10:56;102873.47;;;-4.80;91.88
76070;BME280;64768;51.738;5.852;2022-12-18T02:13:36;102883.44;;;-4.71;91.57
76070;BME280;64768;51.738;5.852;2022-12-18T02:16:16;102886.31;;;-4.72;91.80
76070;BME280;64768;51.738;5.852;2022-12-18T02:18:50;102888.75;;;-4.71;91.51
76070;BME280;64768;51.738;5.852;2022-12-18T02:21:27;102881.81;;;-4.72;91.73
76070;BME280;64768;51.738;5.852;2022-12-18T02:24:13;102885.84;;;-4.69;91.48
76070;BME280;64768;51.738;5.852;2022-12-18T02:26:49;102874.31;;;-4.75;91.39
76070;BME280;64768;51.738;5.852;2022-12-18T02:29:22;102871.84;;;-4.81;91.42
76070;BME280;64768;51.738;5.852;2022-12-18T02:31:54;102869.41;;;-4.88;91.72
76070;BME280;64768;51.738;5.852;2022-12-18T02:34:28;102871.31;;;-4.84;91.74
76070;BME280;64768;51.738;5.852;2022-12-18T02:36:59;102868.91;;;-4.85;91.58
76070;BME280;64768;51.738;5.852;2022-12-18T02:39:33;102864.44;;;-4.79;91.51
76070;BME280;64768;51.738;5.852;2022-12-18T02:42:05;102866.53;;;-4.81;91.46
76070;BME280;64768;51.738;5.852;2022-12-18T02:44:41;102874.72;;;-4.88;91.55
76070;BME280;64768;51.738;5.852;2022-12-18T02:47:12;102880.03;;;-4.88;91.78
76070;BME280;64768;51.738;5.852;2022-12-18T02:49:48;102873.34;;;-4.91;91.40
76070;BME280;64768;51.738;5.852;2022-12-18T02:52:26;102866.66;;;-4.93;91.53
76070;BME280;64768;51.738;5.852;2022-12-18T02:55:03;102856.78;;;-4.98;91.69
76070;BME280;64768;51.738;5.852;2022-12-18T02:57:42;102865.59;;;-4.92;91.70
76070;BME280;64768;51.738;5.852;2022-12-18T03:00:16;102865.81;;;-4.99;91.68
76070;BME280;64768;51.738;5.852;2022-12-18T03:02:49;102855.47;;;-4.95;91.73
76070;BME280;64768;51.738;5.852;2022-12-18T03:05:22;102857.84;;;-4.99;91.58
76070;BME280;64768;51.738;5.852;2022-12-18T03:07:56;102860.19;;;-5.02;91.90
76070;BME280;64768;51.738;5.852;2022-12-18T03:10:27;102852.94;;;-5.07;91.83
76070;BME280;64768;51.738;5.852;2022-12-18T03:13:04;102856.91;;;-5.09;91.69
76070;BME280;64768;51.738;5.852;2022-12-18T03:15:36;102853.75;;;-5.06;91.80
76070;BME280;64768;51.738;5.852;2022-12-18T03:18:10;102856.16;;;-5.05;91.48
76070;BME280;64768;51.738;5.852;2022-12-18T03:20:41;102851.09;;;-5.06;91.60
76070;BME280;64768;51.738;5.852;2022-12-18T03:23:15;102855.53;;;-5.12;91.48
76070;BME280;64768;51.738;5.852;2022-12-18T03:25:44;102863.94;;;-5.20;91.79
76070;BME280;64768;51.738;5.852;2022-12-18T03:28:20;102860.72;;;-5.22;91.69
76070;BME280;64768;51.738;5.852;2022-12-18T03:30:55;102849.16;;;-5.11;91.72
76070;BME280;64768;51.738;5.852;2022-12-18T03:33:27;102847.75;;;-5.19;91.30
76070;BME280;64768;51.738;5.852;2022-12-18T03:35:57;102836.59;;;-5.21;91.79
76070;BME280;64768;51.738;5.852;2022-12-18T03:38:26;102835.03;;;-5.17;91.23
76070;BME280;64768;51.738;5.852;2022-12-18T03:40:59;102832.97;;;-5.09;91.27
76070;BME280;64768;51.738;5.852;2022-12-18T03:43:38;102829.63;;;-5.22;91.48
76070;BME280;64768;51.738;5.852;2022-12-18T03:46:17;102827.22;;;-5.23;91.71
76070;BME280;64768;51.738;5.852;2022-12-18T03:48:51;102826.41;;;-5.24;91.39
76070;BME280;64768;51.738;5.852;2022-12-18T03:51:25;102821.84;;;-5.28;92.06
76070;BME280;64768;51.738;5.852;2022-12-18T03:53:57;102821.31;;;-5.30;91.86
76070;BME280;64768;51.738;5.852;2022-12-18T03:56:30;102812.03;;;-5.28;91.75
76070;BME280;64768;51.738;5.852;2022-12-18T03:59:04;102808.63;;;-5.23;91.61
76070;BME280;64768;51.738;5.852;2022-12-18T04:01:37;102813.69;;;-5.22;91.70
76070;BME280;64768;51.738;5.852;2022-12-18T04:04:07;102802.59;;;-5.19;91.34
76070;BME280;64768;51.738;5.852;2022-12-18T04:06:37;102796.53;;;-5.14;91.48
76070;BME280;64768;51.738;5.852;2022-12-18T04:09:07;102805.16;;;-5.24;91.44
76070;BME280;64768;51.738;5.852;2022-12-18T04:11:36;102810.22;;;-5.22;91.59
76070;BME280;64768;51.738;5.852;2022-12-18T04:14:07;102806.84;;;-5.18;91.77
76070;BME280;64768;51.738;5.852;2022-12-18T04:16:35;102796.47;;;-5.19;91.46
76070;BME280;64768;51.738;5.852;2022-12-18T04:19:04;102791.34;;;-5.26;91.22
76070;BME280;64768;51.738;5.852;2022-12-18T04:21:33;102791.34;;;-5.26;91.63
76070;BME280;64768;51.738;5.852;2022-12-18T04:24:02;102787.88;;;-5.26;91.88
76070;BME280;64768;51.738;5.852;2022-12-18T04:26:31;102797.09;;;-5.34;91.77
76070;BME280;64768;51.738;5.852;2022-12-18T04:28:59;102784.63;;;-5.33;91.96
76070;BME280;64768;51.738;5.852;2022-12-18T04:31:30;102787.56;;;-5.30;91.75
76070;BME280;64768;51.738;5.852;2022-12-18T04:33:59;102782.75;;;-5.33;91.46
76070;BME280;64768;51.738;5.852;2022-12-18T04:36:27;102787.03;;;-5.32;91.90
76070;BME280;64768;51.738;5.852;2022-12-18T04:38:56;102774.84;;;-5.28;91.49
76070;BME280;64768;51.738;5.852;2022-12-18T04:41:24;102778.56;;;-5.29;91.52
76070;BME280;64768;51.738;5.852;2022-12-18T04:43:53;102771.94;;;-5.26;91.54
76070;BME280;64768;51.738;5.852;2022-12-18T04:46:22;102787.31;;;-5.28;91.62
76070;BME280;64768;51.738;5.852;2022-12-18T04:48:53;102775.41;;;-5.26;91.68
76070;BME280;64768;51.738;5.852;2022-12-18T04:51:21;102782.81;;;-5.28;91.28
76070;BME280;64768;51.738;5.852;2022-12-18T04:53:50;102783.44;;;-5.21;91.49
76070;BME280;64768;51.738;5.852;2022-12-18T04:56:19;102788.94;;;-5.27;91.57
76070;BME280;64768;51.738;5.852;2022-12-18T04:58:48;102786.56;;;-5.24;91.85
76070;BME280;64768;51.738;5.852;2022-12-18T05:01:17;102800.34;;;-5.27;91.62
76070;BME280;64768;51.738;5.852;2022-12-18T05:03:46;102790.38;;;-5.20;91.49
76070;BME280;64768;51.738;5.852;2022-12-18T05:06:17;102802.91;;;-5.15;91.42
76070;BME280;64768;51.738;5.852;2022-12-18T05:08:45;102804.19;;;-5.18;91.31
76070;BME280;64768;51.738;5.852;2022-12-18T05:11:15;102815.13;;;-5.14;91.08
76070;BME280;64768;51.738;5.852;2022-12-18T05:13:44;102820.94;;;-5.17;91.30
76070;BME280;64768;51.738;5.852;2022-12-18T05:16:14;102826.50;;;-5.19;91.19
76070;BME280;64768;51.738;5.852;2022-12-18T05:18:42;102835.03;;;-5.17;91.21
76070;BME280;64768;51.738;5.852;2022-12-18T05:21:11;102842.00;;;-5.10;90.93
76070;BME280;64768;51.738;5.852;2022-12-18T05:23:42;102847.25;;;-5.16;90.65
76070;BME280;64768;51.738;5.852;2022-12-18T05:26:15;102846.63;;;-5.23;91.14
76070;BME280;64768;51.738;5.852;2022-12-18T05:28:44;102842.56;;;-5.30;91.50
76070;BME280;64768;51.738;5.852;2022-12-18T05:31:13;102843.25;;;-5.18;90.74
76070;BME280;64768;51.738;5.852;2022-12-18T05:33:42;102850.16;;;-5.17;90.89
76070;BME280;64768;51.738;5.852;2022-12-18T05:36:10;102845.81;;;-5.23;91.46
76070;BME280;64768;51.738;5.852;2022-12-18T05:38:42;102835.03;;;-5.17;91.30
76070;BME280;64768;51.738;5.852;2022-12-18T05:41:10;102836.00;;;-5.23;90.78
76070;BME280;64768;51.738;5.852;2022-12-18T05:43:39;102829.63;;;-5.22;91.28
76070;BME280;64768;51.738;5.852;2022-12-18T05:46:12;102836.25;;;-5.24;91.01
76070;BME280;64768;51.738;5.852;2022-12-18T05:48:41;102841.31;;;-5.23;90.87
76070;BME280;64768;51.738;5.852;2022-12-18T05:51:12;102840.09;;;-5.15;91.14
76070;BME280;64768;51.738;5.852;2022-12-18T05:53:43;102825.50;;;-5.34;91.00
76070;BME280;64768;51.738;5.852;2022-12-18T05:56:16;102822.50;;;-5.38;91.56
76070;BME280;64768;51.738;5.852;2022-12-18T05:58:45;102818.94;;;-5.27;91.13
76070;BME280;64768;51.738;5.852;2022-12-18T06:01:15;102819.84;;;-5.38;91.38
76070;BME280;64768;51.738;5.852;2022-12-18T06:03:45;102807.16;;;-5.36;91.47
76070;BME280;64768;51.738;5.852;2022-12-18T06:06:15;102790.72;;;-5.33;91.59
76070;BME280;64768;51.738;5.852;2022-12-18T06:08:48;102792.03;;;-5.35;91.19
76070;BME280;64768;51.738;5.852;2022-12-18T06:11:18;102788.00;;;-5.38;91.30
76070;BME280;64768;51.738;5.852;2022-12-18T06:13:49;102779.84;;;-5.31;91.31
76070;BME280;64768;51.738;5.852;2022-12-18T06:16:18;102784.66;;;-5.28;91.17
76070;BME280;64768;51.738;5.852;2022-12-18T06:18:46;102783.00;;;-5.34;91.25
76070;BME280;64768;51.738;5.852;2022-12-18T06:21:15;102780.34;;;-5.34;91.00
76070;BME280;64768;51.738;5.852;2022-12-18T06:23:46;102782.00;;;-5.28;91.42
76070;BME280;64768;51.738;5.852;2022-12-18T06:26:15;102773.28;;;-5.24;91.34
76070;BME280;64768;51.738;5.852;2022-12-18T06:28:43;102780.53;;;-5.19;91.26
76070;BME280;64768;51.738;5.852;2022-12-18T06:31:12;102776.03;;;-5.19;91.33
76070;BME280;64768;51.738;5.852;2022-12-18T06:33:41;102773.28;;;-5.24;91.28
76070;BME280;64768;51.738;5.852;2022-12-18T06:36:11;102771.44;;;-5.23;90.87
76070;BME280;64768;51.738;5.852;2022-12-18T06:38:42;102778.13;;;-5.21;91.02
76070;BME280;64768;51.738;5.852;2022-12-18T06:41:16;102766.06;;;-5.28;91.43
76070;BME280;64768;51.738;5.852;2022-12-18T06:43:45;102771.13;;;-5.27;91.39
76070;BME280;64768;51.738;5.852;2022-12-18T06:46:13;102763.97;;;-5.26;91.61
76070;BME280;64768;51.738;5.852;2022-12-18T06:48:42;102753.25;;;-5.36;91.63
76070;BME280;64768;51.738;5.852;2022-12-18T06:51:11;102757.06;;;-5.27;91.60
76070;BME280;64768;51.738;5.852;2022-12-18T06:53:39;102760.81;;;-5.23;91.18
76070;BME280;64768;51.738;5.852;2022-12-18T06:56:08;102757.09;;;-5.22;91.43
76070;BME280;64768;51.738;5.852;2022-12-18T06:58:39;102749.38;;;-5.24;91.56
76070;BME280;64768;51.738;5.852;2022-12-18T07:01:10;102744.88;;;-5.23;91.46
76070;BME280;64768;51.738;5.852;2022-12-18T07:03:40;102746.81;;;-5.19;91.51
76070;BME280;64768;51.738;5.852;2022-12-18T07:06:14;102748.41;;;-5.18;91.54
76070;BME280;64768;51.738;5.852;2022-12-18T07:08:43;102748.72;;;-5.14;91.65
76070;BME280;64768;51.738;5.852;2022-12-18T07:11:12;102748.41;;;-5.18;91.66
76070;BME280;64768;51.738;5.852;2022-12-18T07:13:45;102748.59;;;-5.02;91.36
76070;BME280;64768;51.738;5.852;2022-12-18T07:16:18;102742.59;;;-5.15;91.29
76070;BME280;64768;51.738;5.852;2022-12-18T07:18:47;102743.53;;;-5.04;91.29
76070;BME280;64768;51.738;5.852;2022-12-18T07:21:17;102743.19;;;-5.07;91.17
76070;BME280;64768;51.738;5.852;2022-12-18T07:23:46;102735.69;;;-5.16;91.40
76070;BME280;64768;51.738;5.852;2022-12-18T07:26:16;102745.50;;;-5.16;91.55
76070;BME280;64768;51.738;5.852;2022-12-18T07:28:48;102747.16;;;-5.10;91.49
76070;BME280;64768;51.738;5.852;2022-12-18T07:31:18;102748.22;;;-5.11;91.48
76070;BME280;64768;51.738;5.852;2022-12-18T07:33:48;102735.06;;;-5.23;91.42
76070;BME280;64768;51.738;5.852;2022-12-18T07:36:18;102726.28;;;-5.23;91.86
76070;BME280;64768;51.738;5.852;2022-12-18T07:38:48;102731.03;;;-5.03;91.80
76070;BME280;64768;51.738;5.852;2022-12-18T07:41:20;102727.47;;;-5.14;91.67
76070;BME280;64768;51.738;5.852;2022-12-18T07:43:52;102736.78;;;-5.11;91.68
76070;BME280;64768;51.738;5.852;2022-12-18T07:46:21;102727.75;;;-5.10;91.67
76070;BME280;64768;51.738;5.852;2022-12-18T07:48:50;102717.13;;;-5.10;91.46
76070;BME280;64768;51.738;5.852;2022-12-18T07:51:19;102715.47;;;-5.17;91.70
76070;BME280;64768;51.738;5.852;2022-12-18T07:53:59;102697.44;;;-5.15;92.02
76070;BME280;64768;51.738;5.852;2022-12-18T07:56:28;102693.78;;;-5.08;91.65
76070;BME280;64768;51.738;5.852;2022-12-18T07:58:59;102697.72;;;-5.11;91.75
76070;BME280;64768;51.738;5.852;2022-12-18T08:01:28;102684.44;;;-5.11;91.59
76070;BME280;64768;51.738;5.852;2022-12-18T08:03:57;102685.53;;;-5.07;91.56
76070;BME280;64768;51.738;5.852;2022-12-18T08:06:25;102679.00;;;-4.99;91.93
76070;BME280;64768;51.738;5.852;2022-12-18T08:08:55;102677.94;;;-4.98;91.57
76070;BME280;64768;51.738;5.852;2022-12-18T08:11:25;102692.28;;;-4.99;91.72
76070;BME280;64768;51.738;5.852;2022-12-18T08:13:54;102693.16;;;-4.89;91.78
76070;BME280;64768;51.738;5.852;2022-12-18T08:16:26;102689.50;;;-4.82;91.71
76070;BME280;64768;51.738;5.852;2022-12-18T08:18:55;102689.25;;;-4.81;91.41
76070;BME280;64768;51.738;5.852;2022-12-18T08:21:25;102692.25;;;-4.72;91.41
76070;BME280;64768;51.738;5.852;2022-12-18T08:23:56;102691.50;;;-4.68;91.32
76070;BME280;64768;51.738;5.852;2022-12-18T08:26:28;102683.28;;;-4.66;91.23
76070;BME280;64768;51.738;5.852;2022-12-18T08:28:59;102683.03;;;-4.60;91.17
76070;BME280;64768;51.738;5.852;2022-12-18T08:31:30;102678.28;;;-4.58;91.26
76070;BME280;64768;51.738;5.852;2022-12-18T08:33:59;102678.63;;;-4.49;91.34
76070;BME280;64768;51.738;5.852;2022-12-18T08:36:28;102682.34;;;-4.50;91.65
76070;BME280;64768;51.738;5.852;2022-12-18T08:38:57;102682.88;;;-4.48;91.83
76070;BME280;64768;51.738;5.852;2022-12-18T08:41:25;102679.19;;;-4.42;91.84
76070;BME280;64768;51.738;5.852;2022-12-18T08:43:55;102675.25;;;-4.34;91.57
76070;BME280;64768;51.738;5.852;2022-12-18T08:46:40;102679.00;;;-4.30;91.51
76070;BME280;64768;51.738;5.852;2022-12-18T08:49:10;102679.34;;;-4.21;91.50
76070;BME280;64768;51.738;5.852;2022-12-18T08:51:39;102688.16;;;-4.16;91.29
76070;BME280;64768;51.738;5.852;2022-12-18T08:54:10;102689.22;;;-4.17;91.32
76070;BME280;64768;51.738;5.852;2022-12-18T08:56:39;102679.91;;;-4.14;91.10
76070;BME280;64768;51.738;5.852;2022-12-18T08:59:08;102686.56;;;-4.12;91.20
76070;BME280;64768;51.738;5.852;2022-12-18T09:01:39;102681.84;;;-4.05;91.10
76070;BME280;64768;51.738;5.852;2022-12-18T09:04:09;102683.72;;;-4.00;91.07
76070;BME280;64768;51.738;5.852;2022-12-18T09:06:38;102680.28;;;-3.96;90.95
76070;BME280;64768;51.738;5.852;2022-12-18T09:09:06;102685.59;;;-3.96;91.06
76070;BME280;64768;51.738;5.852;2022-12-18T09:11:35;102669.41;;;-3.89;90.90
76070;BME280;64768;51.738;5.852;2022-12-18T09:14:04;102673.66;;;-3.88;90.86
76070;BME280;64768;51.738;5.852;2022-12-18T09:16:33;102669.41;;;-3.84;91.03
76070;BME280;64768;51.738;5.852;2022-12-18T09:19:05;102671.03;;;-3.83;91.18
76070;BME280;64768;51.738;5.852;2022-12-18T09:21:34;102668.38;;;-3.78;91.12
76070;BME280;64768;51.738;5.852;2022-12-18T09:24:05;102673.75;;;-3.73;91.41
76070;BME280;64768;51.738;5.852;2022-12-18T09:26:34;102665.50;;;-3.71;91.14
76070;BME280;64768;51.738;5.852;2022-12-18T09:29:03;102680.69;;;-3.67;91.32
76070;BME280;64768;51.738;5.852;2022-12-18T09:31:32;102689.47;;;-3.61;91.35
76070;BME280;64768;51.738;5.852;2022-12-18T09:34:04;102683.66;;;-3.58;91.26
76070;BME280;64768;51.738;5.852;2022-12-18T09:36:32;102674.06;;;-3.54;90.97
76070;BME280;64768;51.738;5.852;2022-12-18T09:39:01;102677.81;;;-3.50;90.73
76070;BME280;64768;51.738;5.852;2022-12-18T09:41:43;102675.16;;;-3.45;90.80
76070;BME280;64768;51.738;5.852;2022-12-18T09:44:18;102671.16;;;-3.42;90.75
76070;BME280;64768;51.738;5.852;2022-12-18T09:46:51;102662.41;;;-3.38;90.62
76070;BME280;64768;51.738;5.852;2022-12-18T09:49:26;102662.41;;;-3.33;90.54
76070;BME280;64768;51.738;5.852;2022-12-18T09:52:00;102663.22;;;-3.27;90.78
76070;BME280;64768;51.738;5.852;2022-12-18T09:54:34;102663.78;;;-3.25;91.04
76070;BME280;64768;51.738;5.852;2022-12-18T09:57:04;102652.03;;;-3.24;90.91
76070;BME280;64768;51.738;5.852;2022-12-18T09:59:36;102665.09;;;-3.17;90.79
76070;BME280;64768;51.738;5.852;2022-12-18T10:02:16;102652.84;;;-3.13;90.70
76070;BME280;64768;51.738;5.852;2022-12-18T10:05:03;102649.66;;;-3.10;90.24
76070;BME280;64768;51.738;5.852;2022-12-18T10:07:39;102640.06;;;-3.06;90.36
76070;BME280;64768;51.738;5.852;2022-12-18T10:10:19;102631.28;;;-3.02;90.62
76070;BME280;64768;51.738;5.852;2022-12-18T10:12:57;102637.66;;;-2.97;90.43
76070;BME280;64768;51.738;5.852;2022-12-18T10:15:36;102629.94;;;-2.94;90.14
76070;BME280;64768;51.738;5.852;2022-12-18T10:18:18;102616.38;;;-2.92;90.76
76070;BME280;64768;51.738;5.852;2022-12-18T10:20:54;102622.47;;;-2.87;89.95
76070;BME280;64768;51.738;5.852;2022-12-18T10:23:28;102623.00;;;-2.85;90.12
76070;BME280;64768;51.738;5.852;2022-12-18T10:26:02;102627.53;;;-2.80;89.76
76070;BME280;64768;51.738;5.852;2022-12-18T10:28:34;102628.06;;;-2.78;89.48
76070;BME280;64768;51.738;5.852;2022-12-18T10:31:05;102625.69;;;-2.75;89.74
76070;BME280;64768;51.738;5.852;2022-12-18T10:33:34;102631.00;;;-2.69;89.48
76070;BME280;64768;51.738;5.852;2022-12-18T10:36:06;102635.28;;;-2.68;89.15
76070;BME280;64768;51.738;5.852;2022-12-18T10:38:35;102626.19;;;-2.62;89.57
76070;BME280;64768;51.738;5.852;2022-12-18T10:41:05;102624.31;;;-2.62;89.44
76070;BME280;64768;51.738;5.852;2022-12-18T10:43:38;102625.94;;;-2.56;89.21
76070;BME280;64768;51.738;5.852;2022-12-18T10:46:15;102610.72;;;-2.55;89.28
76070;BME280;64768;51.738;5.852;2022-12-18T10:48:51;102609.38;;;-2.53;89.73
76070;BME280;64768;51.738;5.852;2022-12-18T10:51:26;102606.16;;;-2.45;88.83
76070;BME280;64768;51.738;5.852;2022-12-18T10:53:57;102602.16;;;-2.42;88.42
76070;BME280;64768;51.738;5.852;2022-12-18T10:56:28;102592.28;;;-2.42;88.06
76070;BME280;64768;51.738;5.852;2022-12-18T10:59:00;102576.00;;;-2.35;87.74
76070;BME280;64768;51.738;5.852;2022-12-18T11:01:45;102584.50;;;-2.33;88.92
76070;BME280;64768;51.738;5.852;2022-12-18T11:04:18;102573.84;;;-2.33;88.29
76070;BME280;64768;51.738;5.852;2022-12-18T11:07:01;102574.88;;;-2.29;88.77
76070;BME280;64768;51.738;5.852;2022-12-18T11:09:31;102565.56;;;-2.26;88.91
76070;BME280;64768;51.738;5.852;2022-12-18T11:12:02;102561.28;;;-2.22;88.08
76070;BME280;64768;51.738;5.852;2022-12-18T11:14:34;102556.44;;;-2.20;88.54
76070;BME280;64768;51.738;5.852;2022-12-18T11:17:03;102552.44;;;-2.18;87.81
76070;BME280;64768;51.738;5.852;2022-12-18T11:19:34;102544.16;;;-2.16;88.26
76070;BME280;64768;51.738;5.852;2022-12-18T11:22:19;102549.22;;;-2.09;87.72
76070;BME280;64768;51.738;5.852;2022-12-18T11:24:53;102551.59;;;-2.08;87.96
76070;BME280;64768;51.738;5.852;2022-12-18T11:27:23;102545.16;;;-2.02;87.73
76070;BME280;64768;51.738;5.852;2022-12-18T11:29:52;102538.22;;;-2.03;88.20
76070;BME280;64768;51.738;5.852;2022-12-18T11:32:32;102539.25;;;-1.99;87.94
76070;BME280;64768;51.738;5.852;2022-12-18T11:35:09;102535.00;;;-1.95;88.12
76070;BME280;64768;51.738;5.852;2022-12-18T11:37:47;102521.88;;;-1.91;87.57
76070;BME280;64768;51.738;5.852;2022-12-18T11:40:19;102532.00;;;-1.88;87.70
76070;BME280;64768;51.738;5.852;2022-12-18T11:42:53;102524.50;;;-1.86;87.71
76070;BME280;64768;51.738;5.852;2022-12-18T11:45:27;102519.69;;;-1.84;88.47
76070;BME280;64768;51.738;5.852;2022-12-18T11:48:00;102527.69;;;-1.79;87.44
76070;BME280;64768;51.738;5.852;2022-12-18T11:50:34;102545.03;;;-1.76;87.87
76070;BME280;64768;51.738;5.852;2022-12-18T11:53:12;102535.38;;;-1.72;88.59
76070;BME280;64768;51.738;5.852;2022-12-18T11:55:47;102539.09;;;-1.68;87.50
76070;BME280;64768;51.738;5.852;2022-12-18T11:58:27;102524.09;;;-1.64;86.88
76070;BME280;64768;51.738;5.852;2022-12-18T12:01:01;102520.09;;;-1.62;87.37
76070;BME280;64768;51.738;5.852;2022-12-18T12:03:51;102522.22;;;-1.59;87.49
76070;BME280;64768;51.738;5.852;2022-12-18T12:06:33;102518.97;;;-1.56;87.07
76070;BME280;64768;51.738;5.852;2022-12-18T12:09:15;102507.22;;;-1.55;87.85
76070;BME280;64768;51.738;5.852;2022-12-18T12:11:53;102500.00;;;-1.54;87.14
76070;BME280;64768;51.738;5.852;2022-12-18T12:14:43;102489.03;;;-1.53;86.94
76070;BME280;64768;51.738;5.852;2022-12-18T12:17:21;102483.91;;;-1.49;86.92
76070;BME280;64768;51.738;5.852;2022-12-18T12:19:56;102487.38;;;-1.48;86.70
76070;BME280;64768;51.738;5.852;2022-12-18T12:22:33;102484.19;;;-1.45;87.12
76070;BME280;64768;51.738;5.852;2022-12-18T12:25:21;102478.28;;;-1.47;87.60
76070;BME280;64768;51.738;5.852;2022-12-18T12:28:06;102476.16;;;-1.45;87.25
76070;BME280;64768;51.738;5.852;2022-12-18T12:30:44;102472.41;;;-1.44;87.14
76070;BME280;64768;51.738;5.852;2022-12-18T12:33:27;102477.97;;;-1.41;86.68
76070;BME280;64768;51.738;5.852;2022-12-18T12:36:04;102476.91;;;-1.40;86.78
76070;BME280;64768;51.738;5.852;2022-12-18T12:38:40;102467.81;;;-1.39;87.51
76070;BME280;64768;51.738;5.852;2022-12-18T12:41:17;102468.59;;;-1.38;86.83
76070;BME280;64768;51.738;5.852;2022-12-18T12:44:01;102460.00;;;-1.35;85.39
76070;BME280;64768;51.738;5.852;2022-12-18T12:46:37;102455.97;;;-1.33;85.89
76070;BME280;64768;51.738;5.852;2022-12-18T12:49:12;102453.03;;;-1.31;86.74
76070;BME280;64768;51.738;5.852;2022-12-18T12:51:43;102451.97;;;-1.30;85.29
76070;BME280;64768;51.738;5.852;2022-12-18T12:54:15;102444.97;;;-1.26;86.09
76070;BME280;64768;51.738;5.852;2022-12-18T12:56:50;102441.22;;;-1.25;85.10
76070;BME280;64768;51.738;5.852;2022-12-18T12:59:31;102435.31;;;-1.22;86.56
76070;BME280;64768;51.738;5.852;2022-12-18T13:02:10;102430.75;;;-1.22;85.43
76070;BME280;64768;51.738;5.852;2022-12-18T13:04:47;102430.19;;;-1.18;85.94
76070;BME280;64768;51.738;5.852;2022-12-18T13:07:23;102421.88;;;-1.17;85.73
76070;BME280;64768;51.738;5.852;2022-12-18T13:10:13;102423.47;;;-1.16;86.23
76070;BME280;64768;51.738;5.852;2022-12-18T13:12:56;102398.63;;;-1.16;86.13
76070;BME280;64768;51.738;5.852;2022-12-18T13:15:25;102412.22;;;-1.13;84.99